sensor_id;sensor_type;location;lat;lon;timestamp;pressure;altitude;pressure_sealevel;temperature;humidity
32237;BME280;18726;44.732;10.550;2023-08-01T00:01:17;100315.28;;;27.89;99.67
32237;BME280;18726;44.732;10.550;2023-08-01T00:04:20;100319.09;;;28.01;98.22
32237;BME280;18726;44.732;10.550;2023-08-01T00:07:27;100318.44;;;28.06;97.66
32237;BME280;18726;44.732;10.550;2023-08-01T00:10:31;100312.06;;;28.05;100.00
32237;BME280;18726;44.732;10.550;2023-08-01T00:13:34;100304.94;;;28.04;96.52
32237;BME280;18726;44.732;10.550;2023-08-01T00:16:38;100307.06;;;28.09;98.28
32237;BME280;18726;44.732;10.550;2023-08-01T00:19:41;100302.81;;;27.99;96.26
32237;BME280;18726;44.732;10.550;2023-08-01T00:22:45;100296.47;;;27.99;94.74
32237;BME280;18726;44.732;10.550;2023-08-01T00:25:49;100287.19;;;27.93;100.00
32237;BME280;18726;44.732;10.550;2023-08-01T00:28:55;100273.88;;;27.87;100.00
32237;BME280;18726;44.732;10.550;2023-08-01T00:31:58;100281.78;;;27.89;95.56
32237;BME280;18726;44.732;10.550;2023-08-01T00:35:02;100283.31;;;27.90;95.82
32237;BME280;18726;44.732;10.550;2023-08-01T00:38:06;100272.84;;;27.76;100.00
32237;BME280;18726;44.732;10.550;2023-08-01T00:41:10;100272.47;;;27.68;99.85
32237;BME280;18726;44.732;10.550;2023-08-01T00:44:14;100264.19;;;27.74;99.32
32237;BME280;18726;44.732;10.550;2023-08-01T00:47:18;100270.38;;;27.78;99.37
32237;BME280;18726;44.732;10.550;2023-08-01T00:50:22;100268.19;;;27.82;96.09
32237;BME280;18726;44.732;10.550;2023-08-01T00:53:27;100270.00;;;27.85;97.31
32237;BME280;18726;44.732;10.550;2023-08-01T00:56:30;100267.66;;;27.69;96.54
32237;BME280;18726;44.732;10.550;2023-08-01T00:59:34;100264.44;;;27.61;100.00
32237;BME280;18726;44.732;10.550;2023-08-01T01:02:39;100256.38;;;27.54;100.00
32237;BME280;18726;44.732;10.550;2023-08-01T01:05:49;100249.06;;;27.56;99.96
32237;BME280;18726;44.732;10.550;2023-08-01T01:08:53;100250.94;;;27.60;98.55
32237;BME280;18726;44.732;10.550;2023-08-01T01:11:59;100255.28;;;27.61;98.81
32237;BME280;18726;44.732;10.550;2023-08-01T01:15:03;100251.09;;;27.56;100.00
32237;BME280;18726;44.732;10.550;2023-08-01T01:18:08;100246.31;;;27.47;100.00
32237;BME280;18726;44.732;10.550;2023-08-01T01:21:13;100236.06;;;27.63;98.53
32237;BME280;18726;44.732;10.550;2023-08-01T01:24:18;100243.38;;;27.51;98.42
32237;BME280;18726;44.732;10.550;2023-08-01T01:27:23;100239.97;;;27.47;100.00
32237;BME280;18726;44.732;10.550;2023-08-01T01:30:28;100246.63;;;27.49;100.00
32237;BME280;18726;44.732;10.550;2023-08-01T01:33:33;100237.34;;;27.43;100.00
32237;BME280;18726;44.732;10.550;2023-08-01T01:36:37;100230.13;;;27.37;100.00
32237;BME280;18726;44.732;10.550;2023-08-01T01:39:43;100239.13;;;27.32;98.84
32237;BME280;18726;44.732;10.550;2023-08-01T01:42:47;100236.81;;;27.30;100.00
32237;BME280;18726;44.732;10.550;2023-08-01T01:45:52;100230.94;;;27.28;100.00
32237;BME280;18726;44.732;10.550;2023-08-01T01:48:55;100232.50;;;27.20;100.00
32237;BME280;18726;44.732;10.550;2023-08-01T01:55:42;100219.97;;;27.15;100.00
32237;BME280;18726;44.732;10.550;2023-08-01T01:58:46;100214.59;;;27.12;100.00
32237;BME280;18726;44.732;10.550;2023-08-01T02:01:50;100213.38;;;27.04;100.00
32237;BME280;18726;44.732;10.550;2023-08-01T02:04:54;100217.34;;;26.70;100.00
32237;BME280;18726;44.732;10.550;2023-08-01T02:07:57;100214.28;;;26.49;100.00
32237;BME280;18726;44.732;10.550;2023-08-01T02:11:02;100213.78;;;26.60;100.00
32237;BME280;18726;44.732;10.550;2023-08-01T02:14:05;100218.09;;;26.70;100.00
32237;BME280;18726;44.732;10.550;2023-08-01T02:17:09;100203.41;;;26.61;100.00
32237;BME280;18726;44.732;10.550;2023-08-01T02:20:13;100196.50;;;26.38;100.00
32237;BME280;18726;44.732;10.550;2023-08-01T02:23:17;100188.31;;;26.25;100.00
32237;BME280;18726;44.732;10.550;2023-08-01T02:26:20;100182.91;;;26.12;100.00
32237;BME280;18726;44.732;10.550;2023-08-01T02:29:26;100177.31;;;26.03;100.00
32237;BME280;18726;44.732;10.550;2023-08-01T02:32:30;100185.06;;;25.99;100.00
32237;BME280;18726;44.732;10.550;2023-08-01T02:35:33;100185.38;;;26.10;100.00
32237;BME280;18726;44.732;10.550;2023-08-01T02:38:37;100178.25;;;26.18;100.00
32237;BME280;18726;44.732;10.550;2023-08-01T02:41:41;100178.25;;;26.18;100.00
32237;BME280;18726;44.732;10.550;2023-08-01T02:44:44;100173.31;;;26.04;100.00
32237;BME280;18726;44.732;10.550;2023-08-01T02:47:48;100177.97;;;25.89;100.00
32237;BME280;18726;44.732;10.550;2023-08-01T02:50:51;100186.94;;;25.84;100.00
32237;BME280;18726;44.732;10.550;2023-08-01T02:53:55;100190.63;;;26.08;100.00
32237;BME280;18726;44.732;10.550;2023-08-01T02:56:59;100188.78;;;26.14;100.00
32237;BME280;18726;44.732;10.550;2023-08-01T03:00:03;100192.34;;;26.06;100.00
32237;BME280;18726;44.732;10.550;2023-08-01T03:03:09;100193.13;;;25.97;100.00
32237;BME280;18726;44.732;10.550;2023-08-01T03:06:13;100184.47;;;25.95;100.00
32237;BME280;18726;44.732;10.550;2023-08-01T03:09:17;100187.69;;;26.03;100.00
32237;BME280;18726;44.732;10.550;2023-08-01T03:12:21;100195.44;;;25.80;100.00
32237;BME280;18726;44.732;10.550;2023-08-01T03:15:25;100195.72;;;25.64;100.00
32237;BME280;18726;44.732;10.550;2023-08-01T03:18:29;100176.69;;;25.72;100.00
32237;BME280;18726;44.732;10.550;2023-08-01T03:21:33;100163.13;;;25.83;100.00
32237;BME280;18726;44.732;10.550;2023-08-01T03:24:36;100171.56;;;25.52;100.00
32237;BME280;18726;44.732;10.550;2023-08-01T03:27:40;100162.41;;;25.33;100.00
32237;BME280;18726;44.732;10.550;2023-08-01T03:30:44;100154.69;;;25.46;100.00
32237;BME280;18726;44.732;10.550;2023-08-01T03:33:48;100143.41;;;24.82;100.00
32237;BME280;18726;44.732;10.550;2023-08-01T03:36:52;100145.13;;;24.58;100.00
32237;BME280;18726;44.732;10.550;2023-08-01T03:39:56;100127.56;;;24.61;100.00
32237;BME280;18726;44.732;10.550;2023-08-01T03:43:00;100123.53;;;24.53;100.00
32237;BME280;18726;44.732;10.550;2023-08-01T03:46:04;100112.63;;;24.37;100.00
32237;BME280;18726;44.732;10.550;2023-08-01T03:49:08;100122.28;;;24.54;100.00
32237;BME280;18726;44.732;10.550;2023-08-01T03:52:12;100133.88;;;24.62;100.00
32237;BME280;18726;44.732;10.550;2023-08-01T03:55:18;100134.09;;;24.76;100.00
32237;BME280;18726;44.732;10.550;2023-08-01T03:58:22;100140.13;;;25.15;100.00
32237;BME280;18726;44.732;10.550;2023-08-01T04:01:25;100139.88;;;25.49;100.00
32237;BME280;18726;44.732;10.550;2023-08-01T04:04:30;100145.50;;;25.68;100.00
32237;BME280;18726;44.732;10.550;2023-08-01T04:07:37;100145.81;;;25.97;100.00
32237;BME280;18726;44.732;10.550;2023-08-01T04:10:41;100138.50;;;26.09;100.00
32237;BME280;18726;44.732;10.550;2023-08-01T04:13:44;100146.41;;;26.19;100.00
32237;BME280;18726;44.732;10.550;2023-08-01T04:16:48;100148.25;;;26.32;100.00
32237;BME280;18726;44.732;10.550;2023-08-01T04:19:52;100160.44;;;26.43;100.00
32237;BME280;18726;44.732;10.550;2023-08-01T04:22:56;100148.53;;;26.52;100.00
32237;BME280;18726;44.732;10.550;2023-08-01T04:26:00;100148.97;;;26.50;99.71
32237;BME280;18726;44.732;10.550;2023-08-01T04:29:04;100148.53;;;26.52;100.00
32237;BME280;18726;44.732;10.550;2023-08-01T04:32:08;100135.53;;;26.49;96.13
32237;BME280;18726;44.732;10.550;2023-08-01T04:35:11;100135.56;;;26.31;96.41
32237;BME280;18726;44.732;10.550;2023-08-01T04:38:16;100127.06;;;26.25;100.00
32237;BME280;18726;44.732;10.550;2023-08-01T04:41:19;100144.19;;;26.51;99.72
32237;BME280;18726;44.732;10.550;2023-08-01T04:44:23;100155.13;;;26.64;97.76
32237;BME280;18726;44.732;10.550;2023-08-01T04:47:26;100151.53;;;26.72;96.24
32237;BME280;18726;44.732;10.550;2023-08-01T04:50:29;100145.66;;;26.70;94.04
32237;BME280;18726;44.732;10.550;2023-08-01T04:53:33;100141.78;;;26.68;97.42
32237;BME280;18726;44.732;10.550;2023-08-01T04:56:37;100146.50;;;26.85;92.45
32237;BME280;18726;44.732;10.550;2023-08-01T04:59:42;100132.28;;;27.16;90.60
32237;BME280;18726;44.732;10.550;2023-08-01T05:02:46;100117.88;;;27.18;86.04
32237;BME280;18726;44.732;10.550;2023-08-01T05:05:50;100116.09;;;27.06;85.32
32237;BME280;18726;44.732;10.550;2023-08-01T05:08:54;100121.56;;;26.91;85.99
32237;BME280;18726;44.732;10.550;2023-08-01T05:11:57;100128.09;;;27.21;83.03
32237;BME280;18726;44.732;10.550;2023-08-01T05:15:01;100119.78;;;27.12;82.02
32237;BME280;18726;44.732;10.550;2023-08-01T05:18:05;100120.13;;;27.05;84.49
32237;BME280;18726;44.732;10.550;2023-08-01T05:21:08;100128.75;;;27.40;83.84
32237;BME280;18726;44.732;10.550;2023-08-01T05:24:13;100134.34;;;27.78;80.61
32237;BME280;18726;44.732;10.550;2023-08-01T05:27:17;100135.34;;;27.90;80.50
32237;BME280;18726;44.732;10.550;2023-08-01T05:30:21;100122.28;;;28.11;77.81
32237;BME280;18726;44.732;10.550;2023-08-01T05:33:24;100119.34;;;28.29;78.72
32237;BME280;18726;44.732;10.550;2023-08-01T05:36:27;100122.50;;;27.69;77.63
32237;BME280;18726;44.732;10.550;2023-08-01T05:39:31;100113.16;;;27.48;75.91
32237;BME280;18726;44.732;10.550;2023-08-01T05:42:35;100111.25;;;27.39;78.32
32237;BME280;18726;44.732;10.550;2023-08-01T05:45:39;100114.91;;;28.22;77.76
32237;BME280;18726;44.732;10.550;2023-08-01T05:48:43;100119.38;;;29.75;73.34
32237;BME280;18726;44.732;10.550;2023-08-01T05:51:46;100109.22;;;31.40;68.07
32237;BME280;18726;44.732;10.550;2023-08-01T05:54:50;100102.72;;;31.77;64.28
32237;BME280;18726;44.732;10.550;2023-08-01T05:57:54;100106.13;;;31.33;64.29
32237;BME280;18726;44.732;10.550;2023-08-01T06:00:58;100093.34;;;31.26;65.94
32237;BME280;18726;44.732;10.550;2023-08-01T06:04:02;100096.38;;;31.17;67.76
32237;BME280;18726;44.732;10.550;2023-08-01T06:07:06;100091.91;;;30.99;67.97
32237;BME280;18726;44.732;10.550;2023-08-01T06:10:11;100103.59;;;30.92;67.71
32237;BME280;18726;44.732;10.550;2023-08-01T06:13:14;100102.25;;;31.25;66.98
32237;BME280;18726;44.732;10.550;2023-08-01T06:16:18;100103.41;;;31.61;66.69
32237;BME280;18726;44.732;10.550;2023-08-01T06:19:22;100100.41;;;31.70;64.88
32237;BME280;18726;44.732;10.550;2023-08-01T06:22:27;100097.53;;;31.59;65.95
32237;BME280;18726;44.732;10.550;2023-08-01T06:25:30;100095.63;;;31.22;64.27
32237;BME280;18726;44.732;10.550;2023-08-01T06:28:34;100084.13;;;31.20;65.86
32237;BME280;18726;44.732;10.550;2023-08-01T06:31:38;100083.31;;;31.68;65.78
32237;BME280;18726;44.732;10.550;2023-08-01T06:34:41;100084.91;;;32.80;63.63
32237;BME280;18726;44.732;10.550;2023-08-01T06:37:45;100097.53;;;33.84;57.14
32237;BME280;18726;44.732;10.550;2023-08-01T06:40:49;100111.00;;;34.02;57.90
32237;BME280;18726;44.732;10.550;2023-08-01T06:43:52;100098.88;;;33.14;56.17
32237;BME280;18726;44.732;10.550;2023-08-01T06:46:56;100090.47;;;33.03;58.57
32237;BME280;18726;44.732;10.550;2023-08-01T06:49:59;100091.47;;;33.05;62.24
32237;BME280;18726;44.732;10.550;2023-08-01T06:53:03;100097.09;;;33.11;63.74
32237;BME280;18726;44.732;10.550;2023-08-01T06:56:06;100088.59;;;33.22;63.36
32237;BME280;18726;44.732;10.550;2023-08-01T06:59:10;100085.25;;;33.29;61.87
32237;BME280;18726;44.732;10.550;2023-08-01T07:02:14;100080.88;;;33.39;61.94
32237;BME280;18726;44.732;10.550;2023-08-01T07:05:18;100086.25;;;33.37;62.03
32237;BME280;18726;44.732;10.550;2023-08-01T07:08:21;100095.00;;;33.28;61.89
32237;BME280;18726;44.732;10.550;2023-08-01T07:11:25;100091.72;;;33.13;61.75
32237;BME280;18726;44.732;10.550;2023-08-01T07:14:28;100086.31;;;33.73;60.96
32237;BME280;18726;44.732;10.550;2023-08-01T07:17:32;100088.13;;;34.96;55.46
32237;BME280;18726;44.732;10.550;2023-08-01T07:20:35;100095.84;;;35.19;54.90
32237;BME280;18726;44.732;10.550;2023-08-01T07:23:39;100095.38;;;35.15;54.92
32237;BME280;18726;44.732;10.550;2023-08-01T07:26:43;100103.75;;;34.72;56.20
32237;BME280;18726;44.732;10.550;2023-08-01T07:29:47;100099.31;;;34.22;58.50
32237;BME280;18726;44.732;10.550;2023-08-01T07:32:51;100097.78;;;34.21;59.00
32237;BME280;18726;44.732;10.550;2023-08-01T07:35:54;100092.44;;;35.64;55.82
32237;BME280;18726;44.732;10.550;2023-08-01T07:38:58;100099.50;;;36.99;50.30
32237;BME280;18726;44.732;10.550;2023-08-01T07:42:02;100098.16;;;36.60;53.05
32237;BME280;18726;44.732;10.550;2023-08-01T07:45:06;100099.72;;;37.01;53.64
32237;BME280;18726;44.732;10.550;2023-08-01T07:48:11;100092.75;;;36.75;52.02
32237;BME280;18726;44.732;10.550;2023-08-01T07:51:14;100090.66;;;36.63;53.85
32237;BME280;18726;44.732;10.550;2023-08-01T07:54:18;100089.53;;;36.20;54.65
32237;BME280;18726;44.732;10.550;2023-08-01T07:57:21;100104.94;;;36.83;53.44
32237;BME280;18726;44.732;10.550;2023-08-01T08:00:25;100101.69;;;36.93;54.63
32237;BME280;18726;44.732;10.550;2023-08-01T08:03:30;100096.25;;;38.44;51.10
32237;BME280;18726;44.732;10.550;2023-08-01T08:06:34;100097.03;;;39.22;49.11
32237;BME280;18726;44.732;10.550;2023-08-01T08:09:37;100086.22;;;39.72;47.80
32237;BME280;18726;44.732;10.550;2023-08-01T08:12:41;100085.38;;;40.30;45.42
32237;BME280;18726;44.732;10.550;2023-08-01T08:15:45;100092.31;;;41.61;43.98
32237;BME280;18726;44.732;10.550;2023-08-01T08:18:49;100099.25;;;42.15;42.36
32237;BME280;18726;44.732;10.550;2023-08-01T08:21:53;100086.31;;;42.14;40.14
32237;BME280;18726;44.732;10.550;2023-08-01T08:24:56;100078.50;;;41.50;40.08
32237;BME280;18726;44.732;10.550;2023-08-01T08:28:00;100067.19;;;41.67;41.03
32237;BME280;18726;44.732;10.550;2023-08-01T08:31:03;100068.75;;;42.18;38.47
32237;BME280;18726;44.732;10.550;2023-08-01T08:34:07;100064.19;;;41.90;39.00
32237;BME280;18726;44.732;10.550;2023-08-01T08:37:11;100062.56;;;39.92;39.94
32237;BME280;18726;44.732;10.550;2023-08-01T08:40:15;100059.56;;;40.59;41.11
32237;BME280;18726;44.732;10.550;2023-08-01T08:43:19;100062.09;;;41.58;39.74
32237;BME280;18726;44.732;10.550;2023-08-01T08:46:28;100053.28;;;42.45;38.49
32237;BME280;18726;44.732;10.550;2023-08-01T08:49:33;100040.19;;;42.18;35.74
32237;BME280;18726;44.732;10.550;2023-08-01T08:52:37;100038.53;;;41.17;36.95
32237;BME280;18726;44.732;10.550;2023-08-01T08:55:41;100032.84;;;41.02;37.68
32237;BME280;18726;44.732;10.550;2023-08-01T08:58:45;100024.78;;;41.31;39.26
32237;BME280;18726;44.732;10.550;2023-08-01T09:01:50;100027.13;;;42.15;36.00
32237;BME280;18726;44.732;10.550;2023-08-01T09:04:54;100021.97;;;40.60;37.34
32237;BME280;18726;44.732;10.550;2023-08-01T09:08:01;100016.63;;;39.65;37.98
32237;BME280;18726;44.732;10.550;2023-08-01T09:11:08;100006.28;;;39.32;40.01
32237;BME280;18726;44.732;10.550;2023-08-01T09:14:12;100006.00;;;39.66;38.76
32237;BME280;18726;44.732;10.550;2023-08-01T09:17:16;100017.72;;;39.47;38.93
32237;BME280;18726;44.732;10.550;2023-08-01T09:20:22;99995.22;;;39.05;40.53
32237;BME280;18726;44.732;10.550;2023-08-01T09:23:26;99999.94;;;39.03;39.71
32237;BME280;18726;44.732;10.550;2023-08-01T09:26:31;99990.34;;;39.21;40.33
32237;BME280;18726;44.732;10.550;2023-08-01T09:29:34;99987.44;;;40.48;38.94
32237;BME280;18726;44.732;10.550;2023-08-01T09:32:37;99982.91;;;41.01;38.36
32237;BME280;18726;44.732;10.550;2023-08-01T09:35:42;99985.16;;;40.16;38.58
32237;BME280;18726;44.732;10.550;2023-08-01T09:38:48;99970.94;;;39.56;37.79
32237;BME280;18726;44.732;10.550;2023-08-01T09:41:56;99971.81;;;38.56;39.80
32237;BME280;18726;44.732;10.550;2023-08-01T09:45:00;99964.72;;;38.62;40.56
32237;BME280;18726;44.732;10.550;2023-08-01T09:48:04;99971.25;;;39.44;39.78
32237;BME280;18726;44.732;10.550;2023-08-01T09:51:18;99963.47;;;39.37;37.59
32237;BME280;18726;44.732;10.550;2023-08-01T09:54:23;99958.31;;;39.28;37.41
32237;BME280;18726;44.732;10.550;2023-08-01T09:57:30;99947.91;;;39.31;37.78
32237;BME280;18726;44.732;10.550;2023-08-01T10:00:34;99942.59;;;39.27;40.19
32237;BME280;18726;44.732;10.550;2023-08-01T10:03:38;99941.06;;;38.10;38.38
32237;BME280;18726;44.732;10.550;2023-08-01T10:06:46;99934.19;;;38.27;39.88
32237;BME280;18726;44.732;10.550;2023-08-01T10:09:54;99923.72;;;38.86;38.39
32237;BME280;18726;44.732;10.550;2023-08-01T10:13:00;99914.00;;;38.66;39.70
32237;BME280;18726;44.732;10.550;2023-08-01T10:16:05;99921.59;;;40.22;39.02
32237;BME280;18726;44.732;10.550;2023-08-01T10:19:12;99920.91;;;41.09;36.44
32237;BME280;18726;44.732;10.550;2023-08-01T10:22:17;99912.00;;;41.87;35.79
32237;BME280;18726;44.732;10.550;2023-08-01T10:25:22;99901.00;;;42.43;35.32
32237;BME280;18726;44.732;10.550;2023-08-01T10:28:40;99902.31;;;42.25;34.87
32237;BME280;18726;44.732;10.550;2023-08-01T10:31:53;99927.69;;;41.54;33.52
32237;BME280;18726;44.732;10.550;2023-08-01T10:34:57;99925.47;;;41.69;35.15
32237;BME280;18726;44.732;10.550;2023-08-01T10:38:10;99913.47;;;41.21;34.07
32237;BME280;18726;44.732;10.550;2023-08-01T10:41:25;99897.50;;;40.38;35.32
32237;BME280;18726;44.732;10.550;2023-08-01T10:44:29;99892.63;;;40.00;35.93
32237;BME280;18726;44.732;10.550;2023-08-01T10:47:34;99891.63;;;40.84;35.22
32237;BME280;18726;44.732;10.550;2023-08-01T10:50:37;99901.09;;;41.93;35.21
32237;BME280;18726;44.732;10.550;2023-08-01T10:53:41;99902.91;;;42.40;34.35
32237;BME280;18726;44.732;10.550;2023-08-01T10:56:45;99889.81;;;42.55;32.85
32237;BME280;18726;44.732;10.550;2023-08-01T10:59:49;99885.59;;;41.37;31.06
32237;BME280;18726;44.732;10.550;2023-08-01T11:02:53;99871.03;;;39.52;36.19
32237;BME280;18726;44.732;10.550;2023-08-01T11:06:00;99866.44;;;39.18;34.07
32237;BME280;18726;44.732;10.550;2023-08-01T11:09:17;99861.75;;;40.52;36.24
32237;BME280;18726;44.732;10.550;2023-08-01T11:12:21;99861.31;;;41.78;33.92
32237;BME280;18726;44.732;10.550;2023-08-01T11:15:25;99865.75;;;41.89;33.27
32237;BME280;18726;44.732;10.550;2023-08-01T11:18:29;99859.50;;;42.07;33.28
32237;BME280;18726;44.732;10.550;2023-08-01T11:21:34;99857.59;;;42.10;31.48
32237;BME280;18726;44.732;10.550;2023-08-01T11:24:39;99852.41;;;41.91;31.70
32237;BME280;18726;44.732;10.550;2023-08-01T11:27:43;99850.03;;;40.80;30.48
32237;BME280;18726;44.732;10.550;2023-08-01T11:30:47;99840.94;;;40.34;33.48
32237;BME280;18726;44.732;10.550;2023-08-01T11:33:55;99858.94;;;40.85;31.77
32237;BME280;18726;44.732;10.550;2023-08-01T11:37:00;99856.13;;;40.22;31.84
32237;BME280;18726;44.732;10.550;2023-08-01T11:40:06;99853.34;;;40.06;33.50
32237;BME280;18726;44.732;10.550;2023-08-01T11:43:11;99849.91;;;40.71;33.13
32237;BME280;18726;44.732;10.550;2023-08-01T11:46:15;99838.88;;;41.32;32.67
32237;BME280;18726;44.732;10.550;2023-08-01T11:49:18;99835.38;;;41.41;32.84
32237;BME280;18726;44.732;10.550;2023-08-01T11:52:26;99840.53;;;40.86;31.97
32237;BME280;18726;44.732;10.550;2023-08-01T11:55:34;99833.13;;;40.83;33.83
32237;BME280;18726;44.732;10.550;2023-08-01T11:58:42;99826.72;;;40.74;32.89
32237;BME280;18726;44.732;10.550;2023-08-01T12:01:46;99824.13;;;40.61;33.76
32237;BME280;18726;44.732;10.550;2023-08-01T12:04:51;99812.72;;;40.61;33.81
32237;BME280;18726;44.732;10.550;2023-08-01T12:07:55;99801.59;;;40.80;33.69
32237;BME280;18726;44.732;10.550;2023-08-01T12:10:59;99798.22;;;40.74;33.45
32237;BME280;18726;44.732;10.550;2023-08-01T12:14:06;99800.81;;;41.12;33.12
32237;BME280;18726;44.732;10.550;2023-08-01T12:17:11;99804.59;;;41.40;32.77
32237;BME280;18726;44.732;10.550;2023-08-01T12:20:14;99803.91;;;41.32;32.23
32237;BME280;18726;44.732;10.550;2023-08-01T12:23:19;99793.00;;;41.21;32.20
32237;BME280;18726;44.732;10.550;2023-08-01T12:26:23;99808.59;;;41.12;32.34
32237;BME280;18726;44.732;10.550;2023-08-01T12:29:26;99800.63;;;41.10;32.62
32237;BME280;18726;44.732;10.550;2023-08-01T12:32:30;99799.44;;;41.21;32.37
32237;BME280;18726;44.732;10.550;2023-08-01T12:35:35;99788.59;;;40.95;31.38
32237;BME280;18726;44.732;10.550;2023-08-01T12:38:42;99783.44;;;40.68;32.55
32237;BME280;18726;44.732;10.550;2023-08-01T12:41:45;99788.28;;;40.10;32.37
32237;BME280;18726;44.732;10.550;2023-08-01T12:44:49;99774.72;;;39.40;32.84
32237;BME280;18726;44.732;10.550;2023-08-01T12:47:53;99771.31;;;39.57;34.37
32237;BME280;18726;44.732;10.550;2023-08-01T12:50:56;99764.09;;;39.71;34.08
32237;BME280;18726;44.732;10.550;2023-08-01T12:54:00;99776.94;;;39.95;34.83
32237;BME280;18726;44.732;10.550;2023-08-01T12:57:04;99772.25;;;40.30;34.13
32237;BME280;18726;44.732;10.550;2023-08-01T13:00:08;99770.97;;;40.56;33.31
32237;BME280;18726;44.732;10.550;2023-08-01T13:03:13;99760.34;;;40.57;34.23
32237;BME280;18726;44.732;10.550;2023-08-01T13:06:17;99757.91;;;40.13;33.92
32237;BME280;18726;44.732;10.550;2023-08-01T13:09:20;99754.13;;;40.10;32.04
32237;BME280;18726;44.732;10.550;2023-08-01T13:12:24;99745.09;;;40.29;32.88
32237;BME280;18726;44.732;10.550;2023-08-01T13:15:28;99755.50;;;40.42;33.01
32237;BME280;18726;44.732;10.550;2023-08-01T13:23:05;99751.94;;;40.66;33.28
32237;BME280;18726;44.732;10.550;2023-08-01T13:26:08;99744.19;;;40.92;33.33
32237;BME280;18726;44.732;10.550;2023-08-01T13:29:12;99753.66;;;40.94;33.50
32237;BME280;18726;44.732;10.550;2023-08-01T13:32:15;99756.94;;;41.08;33.57
32237;BME280;18726;44.732;10.550;2023-08-01T13:35:19;99753.44;;;40.67;33.04
32237;BME280;18726;44.732;10.550;2023-08-01T13:38:22;99752.41;;;40.47;33.49
32237;BME280;18726;44.732;10.550;2023-08-01T13:41:26;99735.63;;;40.27;34.23
32237;BME280;18726;44.732;10.550;2023-08-01T13:44:30;99749.09;;;40.34;35.41
32237;BME280;18726;44.732;10.550;2023-08-01T13:47:34;99739.63;;;40.24;34.44
32237;BME280;18726;44.732;10.550;2023-08-01T13:50:38;99735.56;;;39.87;34.89
32237;BME280;18726;44.732;10.550;2023-08-01T13:53:42;99734.16;;;39.63;34.94
32237;BME280;18726;44.732;10.550;2023-08-01T13:56:46;99713.00;;;39.10;35.14
32237;BME280;18726;44.732;10.550;2023-08-01T13:59:50;99717.91;;;39.02;35.10
32237;BME280;18726;44.732;10.550;2023-08-01T14:02:54;99717.16;;;39.02;35.95
32237;BME280;18726;44.732;10.550;2023-08-01T14:09:09;99723.78;;;37.43;33.67
32237;BME280;18726;44.732;10.550;2023-08-01T14:12:13;99714.19;;;37.25;35.04
32237;BME280;18726;44.732;10.550;2023-08-01T14:15:20;99707.31;;;37.41;35.66
32237;BME280;18726;44.732;10.550;2023-08-01T14:18:24;99707.94;;;37.83;35.74
32237;BME280;18726;44.732;10.550;2023-08-01T14:21:27;99708.97;;;38.01;34.85
32237;BME280;18726;44.732;10.550;2023-08-01T14:24:31;99702.69;;;37.95;35.41
32237;BME280;18726;44.732;10.550;2023-08-01T14:27:35;99697.06;;;38.03;35.73
32237;BME280;18726;44.732;10.550;2023-08-01T14:30:39;99699.91;;;38.03;35.96
32237;BME280;18726;44.732;10.550;2023-08-01T14:33:43;99698.25;;;37.71;35.56
32237;BME280;18726;44.732;10.550;2023-08-01T14:36:47;99696.38;;;37.74;35.38
32237;BME280;18726;44.732;10.550;2023-08-01T14:39:50;99689.91;;;37.37;34.80
32237;BME280;18726;44.732;10.550;2023-08-01T14:42:54;99700.09;;;36.70;35.56
32237;BME280;18726;44.732;10.550;2023-08-01T14:46:00;99674.81;;;35.97;36.86
32237;BME280;18726;44.732;10.550;2023-08-01T14:49:03;99679.88;;;36.45;36.95
32237;BME280;18726;44.732;10.550;2023-08-01T14:52:07;99686.03;;;36.36;35.59
32237;BME280;18726;44.732;10.550;2023-08-01T14:55:11;99678.47;;;36.73;37.00
32237;BME280;18726;44.732;10.550;2023-08-01T14:58:15;99686.03;;;35.89;38.44
32237;BME280;18726;44.732;10.550;2023-08-01T15:01:18;99676.88;;;36.85;38.75
32237;BME280;18726;44.732;10.550;2023-08-01T15:04:21;99679.47;;;37.25;37.14
32237;BME280;18726;44.732;10.550;2023-08-01T15:07:26;99678.91;;;37.05;36.61
32237;BME280;18726;44.732;10.550;2023-08-01T15:10:30;99678.50;;;37.22;37.97
32237;BME280;18726;44.732;10.550;2023-08-01T15:13:34;99669.91;;;36.65;35.85
32237;BME280;18726;44.732;10.550;2023-08-01T15:16:39;99664.50;;;36.54;35.66
32237;BME280;18726;44.732;10.550;2023-08-01T15:19:43;99660.75;;;37.01;36.83
32237;BME280;18726;44.732;10.550;2023-08-01T15:22:48;99661.09;;;37.54;37.50
32237;BME280;18726;44.732;10.550;2023-08-01T15:25:53;99667.09;;;37.43;37.57
32237;BME280;18726;44.732;10.550;2023-08-01T15:28:57;99661.06;;;37.46;36.98
32237;BME280;18726;44.732;10.550;2023-08-01T15:32:01;99652.19;;;37.78;37.25
32237;BME280;18726;44.732;10.550;2023-08-01T15:35:05;99657.31;;;37.95;37.47
32237;BME280;18726;44.732;10.550;2023-08-01T15:38:09;99647.75;;;38.13;37.92
32237;BME280;18726;44.732;10.550;2023-08-01T15:41:13;99660.63;;;38.22;37.17
32237;BME280;18726;44.732;10.550;2023-08-01T15:44:16;99672.78;;;38.38;35.70
32237;BME280;18726;44.732;10.550;2023-08-01T15:47:20;99682.91;;;38.10;36.74
32237;BME280;18726;44.732;10.550;2023-08-01T15:50:24;99667.44;;;37.68;37.10
32237;BME280;18726;44.732;10.550;2023-08-01T15:53:28;99672.06;;;37.58;37.23
32237;BME280;18726;44.732;10.550;2023-08-01T15:56:32;99667.69;;;37.85;36.83
32237;BME280;18726;44.732;10.550;2023-08-01T15:59:35;99666.16;;;37.84;36.25
32237;BME280;18726;44.732;10.550;2023-08-01T16:02:39;99676.44;;;38.02;36.37
32237;BME280;18726;44.732;10.550;2023-08-01T16:05:43;99670.78;;;38.02;36.17